Forest Falls, CA (92339)

11:29 PM PST on December 17, 2014 (GMT -0800)
North Bench | Change Station
CLOSE
Current Station
Personal Weather Station
Location: Yucaipa, CA
Elevation: 2818 ft
Nearby Weather Stations

Elev 2818 ft 34.07 °N, 117.04 °W | Updated 8 seconds ago

Partly Cloudy
Partly Cloudy
45.1 °F
Feels Like 45 °F
N
0.0
Wind Variable Wind from WSW
Gusts 0.0 mph

Today
High -- | Low -- °F
--% Chance of Precip.
Yesterday
High -- | Low -- °F
Precip. -- in
6:47 AM 4:41 PM
Waning Crescent, 16% visible
Pressure 30.13 in
Visibility 10.0 miles
Clouds Mostly Cloudy 2500 ft
Mostly Cloudy 10000 ft
Windchill 45 °F
Dew Point 40 °F
Humidity 81%
Rainfall 0.56 in
Snow Depth Not available.
UV 0 out of 12
Pollen .90 out of 12
Air Quality Not available.
Flu Activity Not available.
SPECI KRIV 180708Z AUTO 08001KT 10SM BKN025 BKN100 08/08 A3013 RMK AO2 CIG 025V100 BKN025 V FEW

More Conditions Fewer Conditions

Pressure 30.13 in
Visibility 10.0 miles
Clouds Mostly Cloudy 2500 ft
Mostly Cloudy 10000 ft
Windchill 45 °F
Dew Point 40 °F
Humidity 81%
Rainfall 0.56 in
Snow Depth Not available.
UV 0 out of 12
Pollen .90 out of 12
Air Quality Not available.
Flu Activity Not available.
SPECI KRIV 180708Z AUTO 08001KT 10SM BKN025 BKN100 08/08 A3013 RMK AO2 CIG 025V100 BKN025 V FEW

More Conditions Fewer Conditions

10-Day Weather Forecast

Almanac

Astronomy

Dec. 17, 2014 Rise Set
Actual Time
Civil Twilight
Nautical Twilight
Astronomical Twilight
Moon
Length of Visible Light
Length of Day
Tomorrow will be .
, % of the Moon is Illuminated

Today's Extremes

State Highs State Lows

Community

WunderPhotos

Upload Photos

1,778,900 photos uploaded!

WunderBlogs® & News

Nearby

Air Quality

  Air Quality AQ Index Pollutant
Not available.

Snow Depth

Station Depth Elevation

Earthquake Activity

City Distance Mag. Time & Date
Minimum magnitude displayed is 2.5.

Coastal Water Temperatures

Place Temperature

Nearby Weather Stations